White Oak, Iowa
Current Conditions -  °F | °C
As of 2:55 PM on Thursday 27 Nov 2014 (Local Time) from KIKV Reporting Station
Scattered Clouds Scattered Clouds  
Wind Chill:   Ceiling: Unl
Heat Index: 10°   Visibility: 10mi
Dew Point: -2°   Wind: 7mph
Humidity: 57%   Direction: 70°ENE
Pressure: 30.46"   Gusts: NA
Location:  41.8082°N, 93.529°W
Report Text: KIKV 272055Z AUTO 07006KT 10SM SCT055 M12/M19 A3046 RMK AO2
Loading
Personal Weather Stations






























Interactive Weather Map New forecast layout! Learn more

10-Day Weather Forecast

Advertisements
Track Severe Weather on mobile